createdAt,value
2022-09-15T00:02:23.358Z,95.23
2022-09-15T00:04:55.878Z,95.55
2022-09-15T00:07:28.382Z,95.32
2022-09-15T00:10:00.823Z,95.42
2022-09-15T00:12:34.135Z,95.41
2022-09-15T00:15:06.887Z,95.26
2022-09-15T00:17:39.306Z,95.26
2022-09-15T00:20:11.783Z,95.29
2022-09-15T00:22:44.303Z,95.14
2022-09-15T00:25:16.848Z,95.15
2022-09-15T00:27:49.580Z,95.12
2022-09-15T00:30:22.001Z,95.22
2022-09-15T00:32:54.408Z,95.28
2022-09-15T00:35:26.857Z,95.24
2022-09-15T00:37:59.223Z,95.18
2022-09-15T00:40:31.687Z,95.20
2022-09-15T00:43:09.987Z,95.12
2022-09-15T00:45:42.426Z,95.40
2022-09-15T00:48:20.635Z,95.50
2022-09-15T00:50:57.017Z,95.38
2022-09-15T00:53:31.718Z,95.30
2022-09-15T00:56:04.888Z,95.06
2022-09-15T00:58:45.070Z,95.01
2022-09-15T01:01:17.659Z,94.76
2022-09-15T01:03:50.456Z,94.64
2022-09-15T01:06:42.774Z,94.68
2022-09-15T01:09:53.613Z,94.67
2022-09-15T01:12:27.334Z,94.63
2022-09-15T01:15:03.048Z,94.71
2022-09-15T01:17:47.613Z,94.70
2022-09-15T01:20:45.138Z,94.56
2022-09-15T01:23:55.369Z,94.70
2022-09-15T01:26:43.916Z,94.75
2022-09-15T01:29:51.911Z,94.80
2022-09-15T01:33:04.585Z,94.70
2022-09-15T01:35:52.372Z,94.88
2022-09-15T01:38:29.705Z,94.65
2022-09-15T01:41:33.143Z,94.62
2022-09-15T01:44:12.813Z,94.54
2022-09-15T01:46:54.228Z,94.67
2022-09-15T01:49:30.731Z,94.34
2022-09-15T01:52:03.423Z,94.67
2022-09-15T01:54:44.255Z,94.65
2022-09-15T01:57:21.213Z,94.67
2022-09-15T01:59:55.826Z,94.98
2022-09-15T02:02:48.153Z,94.73
2022-09-15T02:05:45.254Z,94.92
2022-09-15T02:08:29.585Z,94.71
2022-09-15T02:11:13.788Z,94.73
2022-09-15T02:13:58.401Z,95.29
2022-09-15T02:16:35.270Z,95.29
2022-09-15T02:19:36.249Z,95.06
2022-09-15T02:22:31.037Z,95.18
2022-09-15T02:25:14.560Z,95.25
2022-09-15T02:27:51.221Z,95.22
2022-09-15T02:30:24.198Z,95.16
2022-09-15T02:33:00.089Z,95.21
2022-09-15T02:35:35.937Z,95.34
2022-09-15T02:38:10.935Z,95.43
2022-09-15T02:40:44.750Z,95.67
2022-09-15T02:43:18.013Z,95.65
2022-09-15T02:45:50.723Z,95.70
2022-09-15T02:48:25.224Z,95.76
2022-09-15T02:50:57.590Z,95.67
2022-09-15T02:53:30.005Z,95.65
2022-09-15T02:56:05.968Z,95.62
2022-09-15T02:58:38.440Z,95.73
2022-09-15T03:01:14.979Z,96.11
2022-09-15T03:03:47.540Z,96.08
2022-09-15T03:06:21.283Z,96.18
2022-09-15T03:08:56.506Z,96.30
2022-09-15T03:11:29.873Z,96.23
2022-09-15T03:14:05.930Z,96.30
2022-09-15T03:16:38.340Z,96.45
2022-09-15T03:19:10.889Z,96.63
2022-09-15T03:21:43.317Z,96.60
2022-09-15T03:24:15.784Z,96.75
2022-09-15T03:26:48.516Z,96.69
2022-09-15T03:29:20.960Z,96.73
2022-09-15T03:31:54.042Z,96.84
2022-09-15T03:34:26.717Z,96.82
2022-09-15T03:36:59.119Z,97.06
2022-09-15T03:39:31.454Z,97.11
2022-09-15T03:42:04.524Z,97.00
2022-09-15T03:44:36.972Z,96.76
2022-09-15T03:47:09.594Z,96.62
2022-09-15T03:49:42.025Z,96.81
2022-09-15T03:52:14.444Z,96.37
2022-09-15T03:54:48.700Z,96.29
2022-09-15T03:57:21.146Z,96.35
2022-09-15T03:59:53.560Z,95.84
2022-09-15T04:02:26.036Z,96.00
2022-09-15T04:04:58.851Z,96.12
2022-09-15T04:07:31.292Z,96.14
2022-09-15T04:10:04.605Z,95.61
2022-09-15T04:12:37.051Z,95.79
2022-09-15T04:15:09.996Z,95.66
2022-09-15T04:17:42.465Z,95.72
2022-09-15T04:20:15.187Z,95.51
2022-09-15T04:22:47.673Z,95.50
2022-09-15T04:25:20.094Z,95.34
2022-09-15T04:27:52.822Z,95.45
2022-09-15T04:30:25.369Z,95.23
2022-09-15T04:32:57.825Z,95.29
2022-09-15T04:35:30.213Z,94.91
2022-09-15T04:38:02.988Z,95.04
2022-09-15T04:40:35.441Z,94.55
2022-09-15T04:43:08.086Z,94.53
2022-09-15T04:45:40.965Z,94.75
2022-09-15T04:48:13.388Z,94.43
2022-09-15T04:50:45.781Z,94.45
2022-09-15T04:53:18.357Z,94.61
2022-09-15T04:55:50.740Z,94.45
2022-09-15T04:58:23.144Z,94.47
2022-09-15T05:00:55.575Z,94.33
2022-09-15T05:03:28.067Z,94.18
2022-09-15T05:06:00.588Z,94.13
2022-09-15T05:08:33.097Z,94.51
2022-09-15T05:11:11.408Z,94.16
2022-09-15T05:13:43.922Z,94.40
2022-09-15T05:16:19.357Z,94.19
2022-09-15T05:18:56.659Z,94.29
2022-09-15T05:21:29.264Z,94.14
2022-09-15T05:24:02.009Z,94.41
2022-09-15T05:26:34.437Z,94.48
2022-09-15T05:29:06.900Z,94.24
2022-09-15T05:31:39.387Z,94.51
2022-09-15T05:34:11.929Z,94.68
2022-09-15T05:36:44.325Z,94.59
2022-09-15T05:39:17.116Z,94.67
2022-09-15T05:41:49.555Z,94.79
2022-09-15T05:44:21.930Z,94.76
2022-09-15T05:46:54.378Z,94.78
2022-09-15T05:49:28.534Z,94.80
2022-09-15T05:52:01.160Z,94.66
2022-09-15T05:54:33.578Z,94.68
2022-09-15T05:57:05.950Z,94.79
2022-09-15T05:59:39.227Z,94.34
2022-09-15T06:02:11.815Z,94.06
2022-09-15T06:04:44.341Z,93.78
2022-09-15T06:07:16.976Z,93.46
2022-09-15T06:09:49.808Z,93.50
2022-09-15T06:12:22.209Z,93.41
2022-09-15T06:14:54.605Z,93.05
2022-09-15T06:17:27.241Z,92.88
2022-09-15T06:19:59.715Z,92.48
2022-09-15T06:22:32.890Z,92.54
2022-09-15T06:25:06.533Z,92.15
2022-09-15T06:27:42.238Z,92.05
2022-09-15T06:30:14.581Z,92.00
2022-09-15T06:32:48.462Z,91.66
2022-09-15T06:35:21.016Z,91.43
2022-09-15T06:37:53.377Z,91.30
2022-09-15T06:40:25.840Z,90.86
2022-09-15T06:42:58.331Z,90.06
2022-09-15T06:45:30.997Z,90.03
2022-09-15T06:48:23.495Z,90.06
2022-09-15T06:50:55.957Z,90.27
2022-09-15T06:53:30.080Z,90.09
2022-09-15T06:56:13.851Z,90.01
2022-09-15T06:58:49.214Z,89.65
2022-09-15T07:01:28.090Z,89.62
2022-09-15T07:04:01.799Z,89.71
2022-09-15T07:06:34.811Z,89.11
2022-09-15T07:09:07.313Z,89.03
2022-09-15T07:11:40.388Z,87.87
2022-09-15T07:14:12.830Z,88.02
2022-09-15T07:16:45.281Z,87.70
2022-09-15T07:19:17.803Z,86.19
2022-09-15T07:21:52.683Z,86.93
2022-09-15T07:24:25.148Z,86.56
2022-09-15T07:26:57.550Z,86.69
2022-09-15T07:29:29.952Z,86.07
2022-09-15T07:32:02.511Z,85.27
2022-09-15T07:34:35.012Z,85.34
2022-09-15T07:37:07.433Z,86.35
2022-09-15T07:39:39.834Z,86.20
2022-09-15T07:42:12.281Z,84.32
2022-09-15T07:44:44.636Z,84.05
2022-09-15T07:47:17.131Z,83.67
2022-09-15T07:49:50.290Z,84.83
2022-09-15T07:52:22.695Z,84.35
2022-09-15T07:54:55.096Z,84.51
2022-09-15T07:57:27.534Z,84.38
2022-09-15T07:59:59.978Z,83.66
2022-09-15T08:02:32.460Z,83.85
2022-09-15T08:05:05.137Z,83.22
2022-09-15T08:07:37.557Z,82.44
2022-09-15T08:10:10.186Z,81.67
2022-09-15T08:12:42.606Z,81.11
2022-09-15T08:15:15.219Z,81.08
2022-09-15T08:17:47.669Z,81.27
2022-09-15T08:20:20.755Z,81.08
2022-09-15T08:22:53.178Z,82.02
2022-09-15T08:25:25.801Z,82.05
2022-09-15T08:27:59.517Z,81.69
2022-09-15T08:30:32.179Z,80.30
2022-09-15T08:33:04.558Z,79.11
2022-09-15T08:35:37.341Z,80.80
2022-09-15T08:38:09.778Z,81.13
2022-09-15T08:40:45.554Z,81.47
2022-09-15T08:43:23.670Z,81.34
2022-09-15T08:46:03.837Z,81.43
2022-09-15T08:48:43.700Z,80.72
2022-09-15T08:51:23.188Z,79.73
2022-09-15T08:54:06.083Z,79.70
2022-09-15T08:56:41.293Z,79.83
2022-09-15T08:59:16.118Z,79.79
2022-09-15T09:01:51.623Z,79.52
2022-09-15T09:04:42.916Z,79.97
2022-09-15T09:07:37.002Z,79.06
2022-09-15T09:10:19.198Z,78.46
2022-09-15T09:13:09.181Z,78.04
2022-09-15T09:16:03.861Z,77.73
2022-09-15T09:18:46.942Z,77.52
2022-09-15T09:21:26.599Z,77.22
2022-09-15T09:24:16.996Z,74.97
2022-09-15T09:26:54.217Z,75.31
2022-09-15T09:29:34.665Z,74.82
2022-09-15T09:32:36.996Z,74.94
2022-09-15T09:35:24.865Z,75.51
2022-09-15T09:37:57.549Z,74.24
2022-09-15T09:40:31.570Z,76.18
2022-09-15T09:43:04.049Z,73.27
2022-09-15T09:45:36.992Z,73.37
2022-09-15T09:48:18.606Z,74.61
2022-09-15T09:50:51.441Z,75.08
2022-09-15T09:53:31.077Z,75.71
2022-09-15T09:56:25.843Z,76.93
2022-09-15T09:58:58.272Z,76.97
2022-09-15T10:01:30.962Z,76.96
2022-09-15T10:04:22.767Z,77.89
2022-09-15T10:06:56.341Z,78.11
2022-09-15T10:09:33.122Z,76.97
2022-09-15T10:12:07.375Z,77.50
2022-09-15T10:14:41.961Z,78.23
2022-09-15T10:17:37.445Z,77.29
2022-09-15T10:20:50.173Z,78.23
2022-09-15T10:23:31.319Z,78.26
2022-09-15T10:26:16.181Z,77.68
2022-09-15T10:29:17.472Z,79.41
2022-09-15T10:31:50.326Z,79.50
2022-09-15T10:34:31.124Z,78.32
2022-09-15T10:37:32.333Z,78.10
2022-09-15T10:40:21.884Z,76.64
2022-09-15T10:43:04.617Z,75.19
2022-09-15T10:45:48.363Z,76.31
2022-09-15T10:48:26.844Z,75.80
2022-09-15T10:51:05.641Z,73.80
2022-09-15T10:53:53.633Z,74.81
2022-09-15T10:56:38.293Z,74.65
2022-09-15T10:59:24.915Z,74.90
2022-09-15T11:02:19.653Z,75.30
2022-09-15T11:04:58.292Z,74.31
2022-09-15T11:07:58.730Z,74.33
2022-09-15T11:10:59.290Z,72.63
2022-09-15T11:13:53.279Z,69.95
2022-09-15T11:16:28.929Z,70.94
2022-09-15T11:19:17.304Z,71.41
2022-09-15T11:21:56.234Z,71.39
2022-09-15T11:24:51.505Z,70.12
2022-09-15T11:27:36.775Z,65.67
2022-09-15T11:30:45.661Z,67.21
2022-09-15T11:33:31.157Z,64.96
2022-09-15T11:36:14.472Z,65.41
2022-09-15T11:38:59.197Z,66.49
2022-09-15T11:41:36.227Z,60.09
2022-09-15T11:44:34.737Z,61.32
2022-09-15T11:47:11.539Z,60.76
2022-09-15T11:49:58.320Z,59.41
2022-09-15T11:52:46.636Z,58.74
2022-09-15T11:55:25.029Z,60.10
2022-09-15T11:58:21.810Z,58.33
2022-09-15T12:01:10.140Z,57.77
2022-09-15T12:04:08.460Z,56.42
2022-09-15T12:09:33.293Z,56.61
2022-09-15T12:12:12.230Z,57.21
2022-09-15T12:14:46.899Z,56.37
2022-09-15T12:17:45.341Z,57.65
2022-09-15T12:20:24.167Z,58.78
2022-09-15T12:23:21.835Z,59.11
2022-09-15T12:26:04.106Z,59.70
2022-09-15T12:28:39.902Z,58.27
2022-09-15T12:31:25.493Z,57.99
2022-09-15T12:33:57.937Z,57.45
2022-09-15T12:36:35.049Z,58.63
2022-09-15T12:39:28.638Z,59.07
2022-09-15T12:42:00.957Z,58.74
2022-09-15T12:44:42.243Z,59.09
2022-09-15T12:47:23.435Z,56.67
2022-09-15T12:50:18.151Z,57.01
2022-09-15T12:52:59.901Z,55.88
2022-09-15T12:55:34.161Z,55.98
2022-09-15T12:58:15.812Z,57.27
2022-09-15T13:01:14.329Z,56.66
2022-09-15T13:06:24.135Z,56.42
2022-09-15T13:09:03.123Z,56.36
2022-09-15T13:11:38.248Z,56.28
2022-09-15T13:14:20.520Z,54.34
2022-09-15T13:17:16.534Z,51.96
2022-09-15T13:19:53.226Z,45.75
2022-09-15T13:22:48.671Z,46.10
2022-09-15T13:25:29.161Z,45.41
2022-09-15T13:28:02.842Z,44.40
2022-09-15T13:31:04.212Z,44.69
2022-09-15T13:40:33.784Z,45.47
2022-09-15T13:43:29.293Z,44.79
2022-09-15T13:46:12.527Z,45.03
2022-09-15T13:49:22.588Z,44.61
2022-09-15T13:52:07.408Z,44.56
2022-09-15T13:55:15.428Z,44.77
2022-09-15T14:00:55.165Z,45.93
2022-09-15T14:03:39.827Z,45.94
2022-09-15T14:06:21.063Z,46.57
2022-09-15T14:08:58.632Z,47.16
2022-09-15T14:11:33.549Z,48.56
2022-09-15T14:14:11.500Z,47.05
2022-09-15T14:16:49.612Z,47.66
2022-09-15T14:19:36.765Z,49.14
2022-09-15T14:22:18.737Z,48.50
2022-09-15T14:24:51.285Z,49.22
2022-09-15T14:27:33.755Z,50.23
2022-09-15T14:30:09.020Z,50.52
2022-09-15T14:32:45.647Z,50.57
2022-09-15T14:35:23.335Z,50.86
2022-09-15T14:37:58.946Z,51.36
2022-09-15T14:40:36.070Z,51.95
2022-09-15T14:43:30.783Z,52.19
2022-09-15T14:46:14.675Z,52.66
2022-09-15T14:48:47.261Z,52.80
2022-09-15T14:51:24.914Z,53.76
2022-09-15T14:54:00.195Z,54.90
2022-09-15T14:56:41.145Z,55.11
2022-09-15T14:59:25.144Z,55.22
2022-09-15T15:02:18.618Z,54.34
2022-09-15T15:05:08.605Z,54.26
2022-09-15T15:07:42.376Z,53.45
2022-09-15T15:10:32.183Z,55.14
2022-09-15T15:13:12.902Z,54.66
2022-09-15T15:15:46.301Z,53.72
2022-09-15T15:18:32.196Z,53.92
2022-09-15T15:21:06.501Z,54.14
2022-09-15T15:23:46.879Z,55.63
2022-09-15T15:26:37.995Z,55.67
2022-09-15T15:29:38.868Z,54.68
2022-09-15T15:32:22.243Z,51.78
2022-09-15T15:34:59.708Z,51.78
2022-09-15T15:37:34.514Z,52.35
2022-09-15T15:40:17.211Z,53.11
2022-09-15T15:43:05.799Z,53.72
2022-09-15T15:45:50.125Z,54.56
2022-09-15T15:48:22.683Z,54.71
2022-09-15T15:50:56.243Z,55.82
2022-09-15T15:53:31.461Z,56.32
2022-09-15T15:56:04.701Z,57.13
2022-09-15T15:58:37.111Z,57.50
2022-09-15T16:01:11.528Z,57.84
2022-09-15T16:03:43.902Z,58.25
2022-09-15T16:06:16.362Z,58.43
2022-09-15T16:08:49.537Z,59.11
2022-09-15T16:11:22.089Z,59.80
2022-09-15T16:13:54.461Z,59.94
2022-09-15T16:16:27.282Z,59.98
2022-09-15T16:18:59.909Z,60.56
2022-09-15T16:21:43.045Z,60.67
2022-09-15T16:24:16.225Z,60.81
2022-09-15T16:26:53.592Z,60.98
2022-09-15T16:29:29.937Z,61.29
2022-09-15T16:32:04.428Z,61.61
2022-09-15T16:34:36.875Z,61.92
2022-09-15T16:37:10.465Z,62.53
2022-09-15T16:39:42.951Z,63.41
2022-09-15T16:42:15.440Z,63.83
2022-09-15T16:44:47.860Z,64.18
2022-09-15T16:47:20.538Z,64.89
2022-09-15T16:49:53.051Z,64.87
2022-09-15T16:52:25.567Z,64.83
2022-09-15T16:55:00.910Z,64.83
2022-09-15T16:57:33.342Z,65.30
2022-09-15T17:00:06.200Z,65.54
2022-09-15T17:02:38.826Z,66.04
2022-09-15T17:05:34.734Z,66.66
2022-09-15T17:08:09.774Z,66.87
2022-09-15T17:10:42.640Z,66.50
2022-09-15T17:13:18.280Z,66.18
2022-09-15T17:15:53.845Z,66.14
2022-09-15T17:18:27.362Z,66.08
2022-09-15T17:20:59.835Z,66.68
2022-09-15T17:23:38.315Z,66.22
2022-09-15T17:26:14.826Z,66.64
2022-09-15T17:28:47.824Z,66.68
2022-09-15T17:31:23.676Z,67.22
2022-09-15T17:33:56.310Z,67.30
2022-09-15T17:36:28.688Z,67.94
2022-09-15T17:39:01.179Z,67.92
2022-09-15T17:41:33.662Z,67.60
2022-09-15T17:44:11.353Z,67.75
2022-09-15T17:46:43.882Z,67.92
2022-09-15T17:49:16.308Z,68.17
2022-09-15T17:51:48.865Z,68.05
2022-09-15T17:54:21.402Z,68.49
2022-09-15T17:56:54.100Z,69.06
2022-09-15T17:59:26.759Z,68.87
2022-09-15T18:01:59.661Z,69.26
2022-09-15T18:04:32.396Z,69.19
2022-09-15T18:07:09.256Z,69.63
2022-09-15T18:09:41.707Z,69.77
2022-09-15T18:12:14.561Z,69.76
2022-09-15T18:14:47.570Z,70.14
2022-09-15T18:17:20.316Z,70.88
2022-09-15T18:19:53.036Z,71.00
2022-09-15T18:22:25.677Z,71.46
2022-09-15T18:24:58.252Z,71.45
2022-09-15T18:27:30.775Z,71.79
2022-09-15T18:30:03.954Z,72.00
2022-09-15T18:32:36.520Z,72.02
2022-09-15T18:35:09.687Z,72.17
2022-09-15T18:37:43.044Z,72.21
2022-09-15T18:40:17.585Z,72.49
2022-09-15T18:42:50.602Z,72.93
2022-09-15T18:45:23.218Z,73.62
2022-09-15T18:47:55.834Z,74.06
2022-09-15T18:50:28.452Z,74.24
2022-09-15T18:53:01.207Z,74.71
2022-09-15T18:55:33.678Z,75.48
2022-09-15T18:58:06.274Z,75.80
2022-09-15T19:00:39.320Z,77.00
2022-09-15T19:03:14.085Z,77.41
2022-09-15T19:05:46.778Z,77.99
2022-09-15T19:08:19.585Z,78.44
2022-09-15T19:10:59.454Z,78.41
2022-09-15T19:13:32.410Z,78.79
2022-09-15T19:16:06.747Z,79.25
2022-09-15T19:18:39.419Z,79.34
2022-09-15T19:21:12.138Z,78.76
2022-09-15T19:23:45.231Z,78.19
2022-09-15T19:26:17.811Z,77.23
2022-09-15T19:28:50.962Z,75.65
2022-09-15T19:31:25.290Z,75.92
2022-09-15T19:33:57.986Z,75.40
2022-09-15T19:36:31.675Z,74.17
2022-09-15T19:39:04.610Z,74.28
2022-09-15T19:41:37.250Z,74.13
2022-09-15T19:44:10.856Z,73.65
2022-09-15T19:46:43.824Z,73.69
2022-09-15T19:49:16.786Z,74.15
2022-09-15T19:51:55.271Z,74.21
2022-09-15T19:54:29.901Z,74.48
2022-09-15T19:57:02.750Z,74.52
2022-09-15T19:59:35.517Z,74.84
2022-09-15T20:02:10.225Z,75.25
2022-09-15T20:04:42.852Z,75.48
2022-09-15T20:07:15.542Z,75.86
2022-09-15T20:09:48.302Z,76.26
2022-09-15T20:14:53.365Z,76.75
2022-09-15T20:17:25.995Z,77.03
2022-09-15T20:19:58.512Z,77.25
2022-09-15T20:22:31.103Z,77.53
2022-09-15T20:25:04.299Z,78.05
2022-09-15T20:27:37.202Z,77.99
2022-09-15T20:30:10.503Z,78.90
2022-09-15T20:32:43.387Z,79.60
2022-09-15T20:35:16.133Z,79.75
2022-09-15T20:37:49.526Z,79.84
2022-09-15T20:40:22.247Z,79.97
2022-09-15T20:42:54.856Z,80.15
2022-09-15T20:45:27.680Z,79.92
2022-09-15T20:48:00.449Z,80.23
2022-09-15T20:50:33.276Z,80.70
2022-09-15T20:53:05.794Z,80.21
2022-09-15T20:55:38.342Z,80.44
2022-09-15T20:58:10.989Z,80.58
2022-09-15T21:00:43.641Z,80.77
2022-09-15T21:03:16.566Z,80.51
2022-09-15T21:05:49.146Z,80.53
2022-09-15T21:08:21.848Z,80.17
2022-09-15T21:10:55.237Z,80.22
2022-09-15T21:13:29.947Z,80.81
2022-09-15T21:16:05.974Z,81.29
2022-09-15T21:18:39.910Z,81.88
2022-09-15T21:21:14.639Z,81.63
2022-09-15T21:23:49.575Z,82.39
2022-09-15T21:26:25.018Z,82.05
2022-09-15T21:28:57.985Z,82.66
2022-09-15T21:31:35.844Z,83.59
2022-09-15T21:34:08.629Z,83.31
2022-09-15T21:36:41.176Z,83.39
2022-09-15T21:39:13.837Z,83.93
2022-09-15T21:41:46.546Z,83.82
2022-09-15T21:44:19.229Z,83.30
2022-09-15T21:46:52.863Z,83.57
2022-09-15T21:49:25.418Z,82.94
2022-09-15T21:51:58.213Z,82.79
2022-09-15T21:54:31.609Z,83.16
2022-09-15T21:57:04.167Z,83.07
2022-09-15T21:59:36.745Z,83.46
2022-09-15T22:02:10.153Z,83.19
2022-09-15T22:04:42.769Z,83.50
2022-09-15T22:07:18.818Z,83.40
2022-09-15T22:09:51.527Z,83.54
2022-09-15T22:12:27.114Z,83.45
2022-09-15T22:14:59.622Z,83.70
2022-09-15T22:17:32.277Z,84.19
2022-09-15T22:20:07.927Z,84.80
2022-09-15T22:22:40.756Z,85.01
2022-09-15T22:25:13.389Z,85.32
2022-09-15T22:27:45.863Z,86.00
2022-09-15T22:30:18.733Z,86.34
2022-09-15T22:32:52.351Z,86.82
2022-09-15T22:35:25.148Z,87.42
2022-09-15T22:37:57.837Z,87.55
2022-09-15T22:40:31.113Z,88.19
2022-09-15T22:43:03.754Z,88.72
2022-09-15T22:45:36.317Z,88.50
2022-09-15T22:48:08.883Z,88.86
2022-09-15T22:50:45.637Z,89.27
2022-09-15T22:53:18.288Z,89.42
2022-09-15T22:55:51.743Z,89.51
2022-09-15T22:58:24.364Z,89.37
2022-09-15T23:01:24.654Z,89.60
2022-09-15T23:03:59.886Z,89.58
2022-09-15T23:06:34.439Z,89.76
2022-09-15T23:09:09.392Z,90.05
2022-09-15T23:11:42.375Z,90.16
2022-09-15T23:14:19.931Z,89.66
2022-09-15T23:16:52.485Z,89.43
2022-09-15T23:19:25.322Z,89.28
2022-09-15T23:21:57.995Z,88.79
2022-09-15T23:24:31.796Z,88.45
2022-09-15T23:27:04.680Z,87.63
2022-09-15T23:29:37.240Z,87.61
2022-09-15T23:32:09.866Z,87.73
2022-09-15T23:34:42.511Z,87.36
2022-09-15T23:37:15.134Z,86.97
2022-09-15T23:39:47.889Z,86.91
2022-09-15T23:42:20.585Z,86.51
2022-09-15T23:44:53.186Z,86.19
2022-09-15T23:47:25.844Z,85.76
2022-09-15T23:50:00.452Z,85.03
2022-09-15T23:52:33.219Z,84.65
2022-09-15T23:55:06.316Z,85.08
2022-09-15T23:57:38.924Z,85.00
